sensor_id;sensor_type;location;lat;lon;timestamp;P1;durP1;ratioP1;P2;durP2;ratioP2
76053;SDS011;64752;48.870;9.082;2022-11-15T00:31:16;3.13;;;1.58;;
76053;SDS011;64752;48.870;9.082;2022-11-15T00:33:42;2.85;;;1.73;;
76053;SDS011;64752;48.870;9.082;2022-11-15T00:36:08;4.50;;;1.92;;
76053;SDS011;64752;48.870;9.082;2022-11-15T00:38:35;4.30;;;1.77;;
76053;SDS011;64752;48.870;9.082;2022-11-15T00:43:27;4.05;;;1.52;;
76053;SDS011;64752;48.870;9.082;2022-11-15T00:45:53;4.53;;;1.80;;
76053;SDS011;64752;48.870;9.082;2022-11-15T00:48:18;2.50;;;1.60;;
76053;SDS011;64752;48.870;9.082;2022-11-15T00:50:43;6.40;;;1.83;;
76053;SDS011;64752;48.870;9.082;2022-11-15T00:53:09;2.67;;;1.90;;
76053;SDS011;64752;48.870;9.082;2022-11-15T00:55:35;8.10;;;2.03;;
76053;SDS011;64752;48.870;9.082;2022-11-15T00:58:01;2.53;;;1.60;;
76053;SDS011;64752;48.870;9.082;2022-11-15T01:00:27;3.58;;;1.83;;
76053;SDS011;64752;48.870;9.082;2022-11-15T01:02:53;2.47;;;1.52;;
76053;SDS011;64752;48.870;9.082;2022-11-15T01:05:18;4.35;;;2.10;;
76053;SDS011;64752;48.870;9.082;2022-11-15T01:07:43;7.90;;;2.05;;
76053;SDS011;64752;48.870;9.082;2022-11-15T01:10:09;3.75;;;1.80;;
76053;SDS011;64752;48.870;9.082;2022-11-15T01:12:34;5.00;;;2.00;;
76053;SDS011;64752;48.870;9.082;2022-11-15T01:14:59;4.20;;;2.10;;
76053;SDS011;64752;48.870;9.082;2022-11-15T01:17:25;4.03;;;1.83;;
76053;SDS011;64752;48.870;9.082;2022-11-15T01:19:50;3.58;;;2.00;;
76053;SDS011;64752;48.870;9.082;2022-11-15T01:22:16;4.00;;;1.90;;
76053;SDS011;64752;48.870;9.082;2022-11-15T01:24:41;5.70;;;2.08;;
76053;SDS011;64752;48.870;9.082;2022-11-15T01:27:07;6.50;;;2.20;;
76053;SDS011;64752;48.870;9.082;2022-11-15T01:29:33;4.35;;;2.28;;
76053;SDS011;64752;48.870;9.082;2022-11-15T01:31:58;4.65;;;1.95;;
76053;SDS011;64752;48.870;9.082;2022-11-15T01:34:23;4.50;;;2.08;;
76053;SDS011;64752;48.870;9.082;2022-11-15T01:36:49;6.63;;;2.10;;
76053;SDS011;64752;48.870;9.082;2022-11-15T01:39:14;3.40;;;2.22;;
76053;SDS011;64752;48.870;9.082;2022-11-15T01:41:43;3.47;;;1.80;;
76053;SDS011;64752;48.870;9.082;2022-11-15T01:46:55;4.43;;;2.22;;
76053;SDS011;64752;48.870;9.082;2022-11-15T01:51:48;4.20;;;2.22;;
76053;SDS011;64752;48.870;9.082;2022-11-15T01:54:15;8.23;;;2.80;;
76053;SDS011;64752;48.870;9.082;2022-11-15T01:56:46;4.50;;;2.60;;
76053;SDS011;64752;48.870;9.082;2022-11-15T01:59:15;6.95;;;2.70;;
76053;SDS011;64752;48.870;9.082;2022-11-15T02:01:41;6.68;;;2.47;;
76053;SDS011;64752;48.870;9.082;2022-11-15T02:04:10;6.10;;;2.35;;
76053;SDS011;64752;48.870;9.082;2022-11-15T02:06:38;6.03;;;2.30;;
76053;SDS011;64752;48.870;9.082;2022-11-15T02:11:30;4.15;;;2.60;;
76053;SDS011;64752;48.870;9.082;2022-11-15T02:13:56;5.43;;;2.50;;
76053;SDS011;64752;48.870;9.082;2022-11-15T02:16:35;4.40;;;2.38;;
76053;SDS011;64752;48.870;9.082;2022-11-15T02:19:19;6.22;;;2.58;;
76053;SDS011;64752;48.870;9.082;2022-11-15T02:38:12;5.53;;;2.35;;
76053;SDS011;64752;48.870;9.082;2022-11-15T02:40:55;6.30;;;2.13;;
76053;SDS011;64752;48.870;9.082;2022-11-15T02:48:47;6.93;;;2.33;;
76053;SDS011;64752;48.870;9.082;2022-11-15T02:51:13;4.00;;;2.10;;
76053;SDS011;64752;48.870;9.082;2022-11-15T02:53:40;3.42;;;2.30;;
76053;SDS011;64752;48.870;9.082;2022-11-15T02:56:07;4.75;;;2.33;;
76053;SDS011;64752;48.870;9.082;2022-11-15T02:58:41;5.18;;;2.63;;
76053;SDS011;64752;48.870;9.082;2022-11-15T03:01:31;6.80;;;2.22;;
76053;SDS011;64752;48.870;9.082;2022-11-15T03:17:26;4.68;;;2.50;;
76053;SDS011;64752;48.870;9.082;2022-11-15T03:19:59;6.45;;;2.28;;
76053;SDS011;64752;48.870;9.082;2022-11-15T03:22:29;5.30;;;2.50;;
76053;SDS011;64752;48.870;9.082;2022-11-15T03:25:00;7.75;;;2.60;;
76053;SDS011;64752;48.870;9.082;2022-11-15T03:27:31;5.68;;;2.63;;
76053;SDS011;64752;48.870;9.082;2022-11-15T03:30:04;5.20;;;2.70;;
76053;SDS011;64752;48.870;9.082;2022-11-15T03:32:31;10.07;;;2.50;;
76053;SDS011;64752;48.870;9.082;2022-11-15T03:35:02;5.13;;;2.33;;
76053;SDS011;64752;48.870;9.082;2022-11-15T03:40:03;3.95;;;2.30;;
76053;SDS011;64752;48.870;9.082;2022-11-15T03:45:20;4.78;;;2.40;;
76053;SDS011;64752;48.870;9.082;2022-11-15T03:47:55;3.95;;;2.30;;
76053;SDS011;64752;48.870;9.082;2022-11-15T03:50:27;4.28;;;2.22;;
76053;SDS011;64752;48.870;9.082;2022-11-15T03:52:53;7.30;;;2.60;;
76053;SDS011;64752;48.870;9.082;2022-11-15T03:55:20;4.90;;;2.05;;
76053;SDS011;64752;48.870;9.082;2022-11-15T03:57:47;4.10;;;2.30;;
76053;SDS011;64752;48.870;9.082;2022-11-15T04:00:15;7.07;;;2.72;;
76053;SDS011;64752;48.870;9.082;2022-11-15T04:02:40;6.90;;;2.35;;
76053;SDS011;64752;48.870;9.082;2022-11-15T04:05:06;5.97;;;2.40;;
76053;SDS011;64752;48.870;9.082;2022-11-15T04:07:32;3.67;;;2.55;;
76053;SDS011;64752;48.870;9.082;2022-11-15T04:09:57;5.70;;;2.15;;
76053;SDS011;64752;48.870;9.082;2022-11-15T04:12:35;5.28;;;2.17;;
76053;SDS011;64752;48.870;9.082;2022-11-15T04:15:04;4.22;;;2.10;;
76053;SDS011;64752;48.870;9.082;2022-11-15T04:17:33;5.00;;;2.13;;
76053;SDS011;64752;48.870;9.082;2022-11-15T04:20:00;3.20;;;2.28;;
76053;SDS011;64752;48.870;9.082;2022-11-15T04:22:45;3.35;;;2.15;;
76053;SDS011;64752;48.870;9.082;2022-11-15T04:25:29;6.93;;;2.90;;
76053;SDS011;64752;48.870;9.082;2022-11-15T04:27:54;4.00;;;2.28;;
76053;SDS011;64752;48.870;9.082;2022-11-15T04:30:19;5.47;;;2.20;;
76053;SDS011;64752;48.870;9.082;2022-11-15T04:32:45;4.05;;;2.20;;
76053;SDS011;64752;48.870;9.082;2022-11-15T04:35:10;4.60;;;2.58;;
76053;SDS011;64752;48.870;9.082;2022-11-15T04:37:38;6.13;;;2.58;;
76053;SDS011;64752;48.870;9.082;2022-11-15T04:40:04;7.22;;;2.90;;
76053;SDS011;64752;48.870;9.082;2022-11-15T04:42:29;4.65;;;2.40;;
76053;SDS011;64752;48.870;9.082;2022-11-15T04:44:55;4.70;;;2.50;;
76053;SDS011;64752;48.870;9.082;2022-11-15T04:47:20;4.30;;;2.15;;
76053;SDS011;64752;48.870;9.082;2022-11-15T04:49:46;3.97;;;2.20;;
76053;SDS011;64752;48.870;9.082;2022-11-15T04:52:11;4.97;;;2.45;;
76053;SDS011;64752;48.870;9.082;2022-11-15T04:54:37;5.43;;;2.50;;
76053;SDS011;64752;48.870;9.082;2022-11-15T04:57:02;3.72;;;2.05;;
76053;SDS011;64752;48.870;9.082;2022-11-15T04:59:28;6.80;;;2.30;;
76053;SDS011;64752;48.870;9.082;2022-11-15T05:01:53;8.30;;;2.90;;
76053;SDS011;64752;48.870;9.082;2022-11-15T05:04:19;6.97;;;2.88;;
76053;SDS011;64752;48.870;9.082;2022-11-15T05:06:45;3.88;;;2.40;;
76053;SDS011;64752;48.870;9.082;2022-11-15T05:09:14;3.72;;;2.25;;
76053;SDS011;64752;48.870;9.082;2022-11-15T05:11:40;8.70;;;2.70;;
76053;SDS011;64752;48.870;9.082;2022-11-15T05:14:06;4.45;;;2.20;;
76053;SDS011;64752;48.870;9.082;2022-11-15T05:16:32;5.07;;;2.40;;
76053;SDS011;64752;48.870;9.082;2022-11-15T05:18:57;4.57;;;2.63;;
76053;SDS011;64752;48.870;9.082;2022-11-15T05:21:23;3.63;;;2.10;;
76053;SDS011;64752;48.870;9.082;2022-11-15T05:23:49;3.85;;;2.47;;
76053;SDS011;64752;48.870;9.082;2022-11-15T05:26:15;8.32;;;2.45;;
76053;SDS011;64752;48.870;9.082;2022-11-15T05:28:42;8.18;;;2.60;;
76053;SDS011;64752;48.870;9.082;2022-11-15T05:31:09;8.10;;;2.60;;
76053;SDS011;64752;48.870;9.082;2022-11-15T05:33:37;5.28;;;2.38;;
76053;SDS011;64752;48.870;9.082;2022-11-15T05:36:09;4.10;;;2.17;;
76053;SDS011;64752;48.870;9.082;2022-11-15T05:38:42;6.65;;;2.90;;
76053;SDS011;64752;48.870;9.082;2022-11-15T05:41:08;7.10;;;2.50;;
76053;SDS011;64752;48.870;9.082;2022-11-15T05:43:35;4.90;;;2.75;;
76053;SDS011;64752;48.870;9.082;2022-11-15T05:46:03;4.75;;;2.90;;
76053;SDS011;64752;48.870;9.082;2022-11-15T05:48:29;6.22;;;2.67;;
76053;SDS011;64752;48.870;9.082;2022-11-15T05:50:56;5.20;;;2.38;;
76053;SDS011;64752;48.870;9.082;2022-11-15T05:53:22;3.63;;;2.37;;
76053;SDS011;64752;48.870;9.082;2022-11-15T05:55:49;4.20;;;2.55;;
76053;SDS011;64752;48.870;9.082;2022-11-15T05:58:16;4.87;;;3.03;;
76053;SDS011;64752;48.870;9.082;2022-11-15T06:00:42;7.50;;;2.77;;
76053;SDS011;64752;48.870;9.082;2022-11-15T06:03:08;6.70;;;2.93;;
76053;SDS011;64752;48.870;9.082;2022-11-15T06:05:34;6.35;;;3.08;;
76053;SDS011;64752;48.870;9.082;2022-11-15T06:07:59;6.72;;;2.55;;
76053;SDS011;64752;48.870;9.082;2022-11-15T06:10:25;5.82;;;3.15;;
76053;SDS011;64752;48.870;9.082;2022-11-15T06:12:58;4.60;;;3.00;;
76053;SDS011;64752;48.870;9.082;2022-11-15T06:15:24;8.18;;;3.42;;
76053;SDS011;64752;48.870;9.082;2022-11-15T06:17:49;7.90;;;4.75;;
76053;SDS011;64752;48.870;9.082;2022-11-15T06:20:14;10.50;;;5.47;;
76053;SDS011;64752;48.870;9.082;2022-11-15T06:22:40;8.68;;;4.70;;
76053;SDS011;64752;48.870;9.082;2022-11-15T06:25:05;6.68;;;4.32;;
76053;SDS011;64752;48.870;9.082;2022-11-15T06:27:31;7.25;;;3.65;;
76053;SDS011;64752;48.870;9.082;2022-11-15T06:29:56;9.57;;;3.00;;
76053;SDS011;64752;48.870;9.082;2022-11-15T06:32:21;3.97;;;2.78;;
76053;SDS011;64752;48.870;9.082;2022-11-15T06:34:47;7.18;;;2.80;;
76053;SDS011;64752;48.870;9.082;2022-11-15T06:37:12;3.25;;;2.20;;
76053;SDS011;64752;48.870;9.082;2022-11-15T06:39:37;5.13;;;2.53;;
76053;SDS011;64752;48.870;9.082;2022-11-15T06:42:03;6.68;;;3.00;;
76053;SDS011;64752;48.870;9.082;2022-11-15T06:44:28;7.03;;;2.90;;
76053;SDS011;64752;48.870;9.082;2022-11-15T06:46:53;7.65;;;3.47;;
76053;SDS011;64752;48.870;9.082;2022-11-15T06:49:19;8.77;;;3.45;;
76053;SDS011;64752;48.870;9.082;2022-11-15T06:51:44;5.32;;;2.92;;
76053;SDS011;64752;48.870;9.082;2022-11-15T06:54:09;6.53;;;3.08;;
76053;SDS011;64752;48.870;9.082;2022-11-15T06:56:35;4.47;;;2.78;;
76053;SDS011;64752;48.870;9.082;2022-11-15T06:59:00;6.30;;;3.53;;
76053;SDS011;64752;48.870;9.082;2022-11-15T07:01:25;5.15;;;3.20;;
76053;SDS011;64752;48.870;9.082;2022-11-15T07:03:51;4.67;;;2.83;;
76053;SDS011;64752;48.870;9.082;2022-11-15T07:06:16;7.13;;;2.90;;
76053;SDS011;64752;48.870;9.082;2022-11-15T07:08:41;6.63;;;2.90;;
76053;SDS011;64752;48.870;9.082;2022-11-15T07:11:07;5.80;;;2.97;;
76053;SDS011;64752;48.870;9.082;2022-11-15T07:13:34;5.07;;;2.95;;
76053;SDS011;64752;48.870;9.082;2022-11-15T07:16:04;6.60;;;2.80;;
76053;SDS011;64752;48.870;9.082;2022-11-15T07:18:33;7.18;;;2.80;;
76053;SDS011;64752;48.870;9.082;2022-11-15T07:21:03;5.53;;;2.85;;
76053;SDS011;64752;48.870;9.082;2022-11-15T07:23:30;6.65;;;2.90;;
76053;SDS011;64752;48.870;9.082;2022-11-15T07:25:56;6.30;;;3.58;;
76053;SDS011;64752;48.870;9.082;2022-11-15T07:28:23;7.00;;;3.25;;
76053;SDS011;64752;48.870;9.082;2022-11-15T07:30:49;4.93;;;3.07;;
76053;SDS011;64752;48.870;9.082;2022-11-15T07:33:15;5.57;;;3.17;;
76053;SDS011;64752;48.870;9.082;2022-11-15T07:35:40;9.25;;;3.83;;
76053;SDS011;64752;48.870;9.082;2022-11-15T07:38:07;5.15;;;3.25;;
76053;SDS011;64752;48.870;9.082;2022-11-15T07:40:33;5.97;;;3.20;;
76053;SDS011;64752;48.870;9.082;2022-11-15T07:42:59;5.82;;;3.20;;
76053;SDS011;64752;48.870;9.082;2022-11-15T07:45:29;8.98;;;2.58;;
76053;SDS011;64752;48.870;9.082;2022-11-15T07:47:55;6.03;;;3.03;;
76053;SDS011;64752;48.870;9.082;2022-11-15T07:50:22;4.83;;;2.10;;
76053;SDS011;64752;48.870;9.082;2022-11-15T07:52:52;5.88;;;2.42;;
76053;SDS011;64752;48.870;9.082;2022-11-15T07:55:22;6.65;;;2.30;;
76053;SDS011;64752;48.870;9.082;2022-11-15T07:57:48;8.52;;;2.63;;
76053;SDS011;64752;48.870;9.082;2022-11-15T08:00:16;9.18;;;2.35;;
76053;SDS011;64752;48.870;9.082;2022-11-15T08:02:42;6.10;;;2.53;;
76053;SDS011;64752;48.870;9.082;2022-11-15T08:05:08;5.23;;;2.20;;
76053;SDS011;64752;48.870;9.082;2022-11-15T08:07:33;5.65;;;2.15;;
76053;SDS011;64752;48.870;9.082;2022-11-15T08:09:59;5.32;;;2.33;;
76053;SDS011;64752;48.870;9.082;2022-11-15T08:12:28;4.65;;;2.30;;
76053;SDS011;64752;48.870;9.082;2022-11-15T08:14:54;4.70;;;1.95;;
76053;SDS011;64752;48.870;9.082;2022-11-15T08:19:46;4.03;;;1.98;;
76053;SDS011;64752;48.870;9.082;2022-11-15T08:22:11;6.27;;;2.57;;
76053;SDS011;64752;48.870;9.082;2022-11-15T08:24:37;4.05;;;1.80;;
76053;SDS011;64752;48.870;9.082;2022-11-15T08:27:03;3.77;;;2.07;;
76053;SDS011;64752;48.870;9.082;2022-11-15T08:29:28;3.33;;;1.77;;
76053;SDS011;64752;48.870;9.082;2022-11-15T08:31:54;4.33;;;2.03;;
76053;SDS011;64752;48.870;9.082;2022-11-15T08:36:46;4.60;;;1.85;;
76053;SDS011;64752;48.870;9.082;2022-11-15T08:39:12;5.00;;;2.17;;
76053;SDS011;64752;48.870;9.082;2022-11-15T08:41:38;4.07;;;1.63;;
76053;SDS011;64752;48.870;9.082;2022-11-15T08:44:04;4.33;;;1.70;;
76053;SDS011;64752;48.870;9.082;2022-11-15T08:46:29;5.27;;;1.60;;
76053;SDS011;64752;48.870;9.082;2022-11-15T08:48:55;3.23;;;1.70;;
76053;SDS011;64752;48.870;9.082;2022-11-15T08:51:20;2.47;;;1.40;;
76053;SDS011;64752;48.870;9.082;2022-11-15T08:53:45;2.40;;;1.20;;
76053;SDS011;64752;48.870;9.082;2022-11-15T08:56:12;3.23;;;1.73;;
76053;SDS011;64752;48.870;9.082;2022-11-15T08:58:39;2.63;;;1.65;;
76053;SDS011;64752;48.870;9.082;2022-11-15T09:01:04;3.63;;;1.53;;
76053;SDS011;64752;48.870;9.082;2022-11-15T09:03:30;5.43;;;1.80;;
76053;SDS011;64752;48.870;9.082;2022-11-15T09:05:56;7.73;;;1.77;;
76053;SDS011;64752;48.870;9.082;2022-11-15T09:08:23;3.45;;;1.60;;
76053;SDS011;64752;48.870;9.082;2022-11-15T09:10:48;4.90;;;1.73;;
76053;SDS011;64752;48.870;9.082;2022-11-15T09:13:14;6.23;;;1.80;;
76053;SDS011;64752;48.870;9.082;2022-11-15T09:15:39;5.37;;;1.77;;
76053;SDS011;64752;48.870;9.082;2022-11-15T09:18:05;3.17;;;1.80;;
76053;SDS011;64752;48.870;9.082;2022-11-15T09:20:30;5.03;;;1.70;;
76053;SDS011;64752;48.870;9.082;2022-11-15T09:23:03;3.80;;;2.17;;
76053;SDS011;64752;48.870;9.082;2022-11-15T09:25:29;3.75;;;1.83;;
76053;SDS011;64752;48.870;9.082;2022-11-15T09:27:54;4.93;;;1.70;;
76053;SDS011;64752;48.870;9.082;2022-11-15T09:30:20;2.67;;;1.58;;
76053;SDS011;64752;48.870;9.082;2022-11-15T09:32:47;4.78;;;1.70;;
76053;SDS011;64752;48.870;9.082;2022-11-15T09:35:12;5.47;;;1.80;;
76053;SDS011;64752;48.870;9.082;2022-11-15T09:37:38;4.30;;;1.70;;
76053;SDS011;64752;48.870;9.082;2022-11-15T09:40:03;3.03;;;1.50;;
76053;SDS011;64752;48.870;9.082;2022-11-15T09:50:27;5.97;;;1.77;;
76053;SDS011;64752;48.870;9.082;2022-11-15T09:55:23;4.40;;;1.90;;
76053;SDS011;64752;48.870;9.082;2022-11-15T09:58:15;3.72;;;1.80;;
76053;SDS011;64752;48.870;9.082;2022-11-15T10:00:47;3.20;;;1.90;;
76053;SDS011;64752;48.870;9.082;2022-11-15T10:05:51;5.03;;;2.10;;
76053;SDS011;64752;48.870;9.082;2022-11-15T10:11:09;4.88;;;1.85;;
76053;SDS011;64752;48.870;9.082;2022-11-15T10:13:39;5.32;;;2.08;;
76053;SDS011;64752;48.870;9.082;2022-11-15T10:21:38;5.80;;;1.95;;
76053;SDS011;64752;48.870;9.082;2022-11-15T10:24:24;5.05;;;1.75;;
76053;SDS011;64752;48.870;9.082;2022-11-15T10:26:53;4.07;;;2.00;;
76053;SDS011;64752;48.870;9.082;2022-11-15T10:29:20;4.00;;;1.80;;
76053;SDS011;64752;48.870;9.082;2022-11-15T10:31:46;6.25;;;2.08;;
76053;SDS011;64752;48.870;9.082;2022-11-15T10:34:13;5.27;;;2.13;;
76053;SDS011;64752;48.870;9.082;2022-11-15T10:36:46;4.05;;;1.83;;
76053;SDS011;64752;48.870;9.082;2022-11-15T10:39:22;3.90;;;1.92;;
76053;SDS011;64752;48.870;9.082;2022-11-15T10:41:48;3.60;;;1.93;;
76053;SDS011;64752;48.870;9.082;2022-11-15T10:46:42;5.97;;;2.13;;
76053;SDS011;64752;48.870;9.082;2022-11-15T10:51:48;4.65;;;1.88;;
76053;SDS011;64752;48.870;9.082;2022-11-15T10:54:19;6.05;;;2.78;;
76053;SDS011;64752;48.870;9.082;2022-11-15T10:56:53;3.72;;;2.05;;
76053;SDS011;64752;48.870;9.082;2022-11-15T10:59:25;3.10;;;2.10;;
76053;SDS011;64752;48.870;9.082;2022-11-15T11:01:54;7.15;;;2.58;;
76053;SDS011;64752;48.870;9.082;2022-11-15T11:04:20;5.33;;;2.53;;
76053;SDS011;64752;48.870;9.082;2022-11-15T11:06:49;4.90;;;2.20;;
76053;SDS011;64752;48.870;9.082;2022-11-15T11:09:30;3.83;;;2.10;;
76053;SDS011;64752;48.870;9.082;2022-11-15T11:11:56;5.00;;;2.35;;
76053;SDS011;64752;48.870;9.082;2022-11-15T11:16:55;5.82;;;2.72;;
76053;SDS011;64752;48.870;9.082;2022-11-15T11:19:34;4.60;;;2.20;;
76053;SDS011;64752;48.870;9.082;2022-11-15T11:22:30;5.53;;;2.53;;
76053;SDS011;64752;48.870;9.082;2022-11-15T11:27:43;3.33;;;2.20;;
76053;SDS011;64752;48.870;9.082;2022-11-15T11:30:14;5.75;;;2.22;;
76053;SDS011;64752;48.870;9.082;2022-11-15T11:32:48;6.30;;;2.03;;
76053;SDS011;64752;48.870;9.082;2022-11-15T11:44:08;4.20;;;1.92;;
76053;SDS011;64752;48.870;9.082;2022-11-15T11:46:49;4.32;;;2.05;;
76053;SDS011;64752;48.870;9.082;2022-11-15T11:55:35;6.82;;;3.95;;
76053;SDS011;64752;48.870;9.082;2022-11-15T12:00:52;11.98;;;3.40;;
76053;SDS011;64752;48.870;9.082;2022-11-15T12:08:56;9.98;;;4.50;;
76053;SDS011;64752;48.870;9.082;2022-11-15T12:11:30;11.98;;;4.82;;
76053;SDS011;64752;48.870;9.082;2022-11-15T12:14:10;12.43;;;4.85;;
76053;SDS011;64752;48.870;9.082;2022-11-15T12:16:52;10.10;;;4.68;;
76053;SDS011;64752;48.870;9.082;2022-11-15T12:19:17;8.87;;;4.20;;
76053;SDS011;64752;48.870;9.082;2022-11-15T12:24:13;13.60;;;5.32;;
76053;SDS011;64752;48.870;9.082;2022-11-15T12:26:46;13.85;;;4.93;;
76053;SDS011;64752;48.870;9.082;2022-11-15T12:31:49;12.80;;;5.65;;
76053;SDS011;64752;48.870;9.082;2022-11-15T12:36:46;13.33;;;5.40;;
76053;SDS011;64752;48.870;9.082;2022-11-15T12:39:12;12.70;;;4.95;;
76053;SDS011;64752;48.870;9.082;2022-11-15T12:41:40;15.35;;;5.43;;
76053;SDS011;64752;48.870;9.082;2022-11-15T12:57:17;8.27;;;3.80;;
76053;SDS011;64752;48.870;9.082;2022-11-15T13:17:44;8.73;;;3.40;;
76053;SDS011;64752;48.870;9.082;2022-11-15T13:20:21;7.25;;;3.17;;
76053;SDS011;64752;48.870;9.082;2022-11-15T13:28:47;9.27;;;2.47;;
76053;SDS011;64752;48.870;9.082;2022-11-15T13:34:00;4.47;;;2.10;;
76053;SDS011;64752;48.870;9.082;2022-11-15T13:36:38;4.47;;;2.20;;
76053;SDS011;64752;48.870;9.082;2022-11-15T13:39:05;4.10;;;2.07;;
76053;SDS011;64752;48.870;9.082;2022-11-15T13:41:45;6.50;;;2.20;;
76053;SDS011;64752;48.870;9.082;2022-11-15T13:44:23;6.18;;;2.65;;
76053;SDS011;64752;48.870;9.082;2022-11-15T13:47:03;9.82;;;2.88;;
76053;SDS011;64752;48.870;9.082;2022-11-15T13:49:37;5.60;;;2.67;;
76053;SDS011;64752;48.870;9.082;2022-11-15T13:52:04;5.53;;;2.73;;
76053;SDS011;64752;48.870;9.082;2022-11-15T13:54:41;6.63;;;2.90;;
76053;SDS011;64752;48.870;9.082;2022-11-15T13:57:12;6.95;;;3.13;;
76053;SDS011;64752;48.870;9.082;2022-11-15T13:59:45;9.15;;;3.35;;
76053;SDS011;64752;48.870;9.082;2022-11-15T14:02:14;6.95;;;2.97;;
76053;SDS011;64752;48.870;9.082;2022-11-15T14:04:49;6.50;;;3.00;;
76053;SDS011;64752;48.870;9.082;2022-11-15T14:07:22;7.82;;;3.25;;
76053;SDS011;64752;48.870;9.082;2022-11-15T14:09:49;7.47;;;3.25;;
76053;SDS011;64752;48.870;9.082;2022-11-15T14:12:34;9.30;;;3.23;;
76053;SDS011;64752;48.870;9.082;2022-11-15T14:15:02;14.35;;;3.35;;
76053;SDS011;64752;48.870;9.082;2022-11-15T14:17:44;7.90;;;3.20;;
76053;SDS011;64752;48.870;9.082;2022-11-15T14:20:24;7.10;;;2.75;;
76053;SDS011;64752;48.870;9.082;2022-11-15T14:23:01;6.93;;;2.88;;
76053;SDS011;64752;48.870;9.082;2022-11-15T14:25:34;11.80;;;2.90;;
76053;SDS011;64752;48.870;9.082;2022-11-15T14:28:14;11.68;;;2.83;;
76053;SDS011;64752;48.870;9.082;2022-11-15T14:30:42;10.95;;;3.03;;
76053;SDS011;64752;48.870;9.082;2022-11-15T14:35:47;8.73;;;2.88;;
76053;SDS011;64752;48.870;9.082;2022-11-15T14:38:13;12.65;;;2.70;;
76053;SDS011;64752;48.870;9.082;2022-11-15T14:40:39;7.50;;;2.33;;
76053;SDS011;64752;48.870;9.082;2022-11-15T14:43:04;4.53;;;2.70;;
76053;SDS011;64752;48.870;9.082;2022-11-15T14:45:29;7.40;;;2.73;;
76053;SDS011;64752;48.870;9.082;2022-11-15T14:47:55;8.50;;;2.73;;
76053;SDS011;64752;48.870;9.082;2022-11-15T14:50:21;5.87;;;3.03;;
76053;SDS011;64752;48.870;9.082;2022-11-15T14:52:47;4.93;;;2.60;;
76053;SDS011;64752;48.870;9.082;2022-11-15T14:55:18;3.47;;;2.22;;
76053;SDS011;64752;48.870;9.082;2022-11-15T14:57:46;9.15;;;2.80;;
76053;SDS011;64752;48.870;9.082;2022-11-15T15:00:12;6.95;;;2.70;;
76053;SDS011;64752;48.870;9.082;2022-11-15T15:05:14;7.35;;;2.90;;
76053;SDS011;64752;48.870;9.082;2022-11-15T15:10:07;6.35;;;2.45;;
76053;SDS011;64752;48.870;9.082;2022-11-15T15:12:33;6.53;;;2.97;;
76053;SDS011;64752;48.870;9.082;2022-11-15T15:14:58;4.13;;;2.60;;
76053;SDS011;64752;48.870;9.082;2022-11-15T15:17:23;7.30;;;2.80;;
76053;SDS011;64752;48.870;9.082;2022-11-15T15:19:49;6.53;;;2.90;;
76053;SDS011;64752;48.870;9.082;2022-11-15T15:22:15;6.60;;;3.30;;
76053;SDS011;64752;48.870;9.082;2022-11-15T15:24:43;9.45;;;3.03;;
76053;SDS011;64752;48.870;9.082;2022-11-15T15:27:09;7.00;;;2.80;;
76053;SDS011;64752;48.870;9.082;2022-11-15T15:29:35;11.10;;;3.30;;
76053;SDS011;64752;48.870;9.082;2022-11-15T15:32:00;6.75;;;3.28;;
76053;SDS011;64752;48.870;9.082;2022-11-15T15:34:29;7.32;;;3.35;;
76053;SDS011;64752;48.870;9.082;2022-11-15T15:39:52;7.60;;;2.83;;
76053;SDS011;64752;48.870;9.082;2022-11-15T15:42:19;8.40;;;3.03;;
76053;SDS011;64752;48.870;9.082;2022-11-15T15:44:45;6.68;;;3.05;;
76053;SDS011;64752;48.870;9.082;2022-11-15T15:47:18;8.00;;;3.35;;
76053;SDS011;64752;48.870;9.082;2022-11-15T15:49:45;8.82;;;3.42;;
76053;SDS011;64752;48.870;9.082;2022-11-15T15:52:11;7.28;;;3.20;;
76053;SDS011;64752;48.870;9.082;2022-11-15T15:54:36;7.60;;;3.23;;
76053;SDS011;64752;48.870;9.082;2022-11-15T15:57:03;10.20;;;3.60;;
76053;SDS011;64752;48.870;9.082;2022-11-15T15:59:29;6.57;;;2.95;;
76053;SDS011;64752;48.870;9.082;2022-11-15T16:01:55;5.23;;;2.77;;
76053;SDS011;64752;48.870;9.082;2022-11-15T16:04:20;10.27;;;3.35;;
76053;SDS011;64752;48.870;9.082;2022-11-15T16:06:46;7.22;;;3.45;;
76053;SDS011;64752;48.870;9.082;2022-11-15T16:09:15;6.65;;;3.40;;
76053;SDS011;64752;48.870;9.082;2022-11-15T16:11:42;5.47;;;2.90;;
76053;SDS011;64752;48.870;9.082;2022-11-15T16:20:41;6.22;;;2.90;;
76053;SDS011;64752;48.870;9.082;2022-11-15T16:23:19;5.68;;;3.10;;
76053;SDS011;64752;48.870;9.082;2022-11-15T16:25:54;8.82;;;3.60;;
76053;SDS011;64752;48.870;9.082;2022-11-15T16:28:48;8.07;;;3.55;;
76053;SDS011;64752;48.870;9.082;2022-11-15T16:31:36;10.75;;;4.10;;
76053;SDS011;64752;48.870;9.082;2022-11-15T16:34:33;11.10;;;3.97;;
76053;SDS011;64752;48.870;9.082;2022-11-15T16:37:31;8.07;;;4.07;;
76053;SDS011;64752;48.870;9.082;2022-11-15T16:40:23;11.20;;;4.40;;
76053;SDS011;64752;48.870;9.082;2022-11-15T16:45:56;10.43;;;4.88;;
76053;SDS011;64752;48.870;9.082;2022-11-15T16:48:27;7.95;;;4.57;;
76053;SDS011;64752;48.870;9.082;2022-11-15T16:50:56;9.15;;;3.72;;
76053;SDS011;64752;48.870;9.082;2022-11-15T16:53:23;9.15;;;4.65;;
76053;SDS011;64752;48.870;9.082;2022-11-15T16:55:49;9.35;;;4.65;;
76053;SDS011;64752;48.870;9.082;2022-11-15T16:58:14;13.73;;;8.03;;
76053;SDS011;64752;48.870;9.082;2022-11-15T17:00:39;13.57;;;8.73;;
76053;SDS011;64752;48.870;9.082;2022-11-15T17:03:05;12.40;;;5.32;;
76053;SDS011;64752;48.870;9.082;2022-11-15T17:05:31;11.37;;;6.47;;
76053;SDS011;64752;48.870;9.082;2022-11-15T17:07:56;8.70;;;4.65;;
76053;SDS011;64752;48.870;9.082;2022-11-15T17:10:22;7.33;;;3.73;;
76053;SDS011;64752;48.870;9.082;2022-11-15T17:12:49;6.25;;;3.20;;
76053;SDS011;64752;48.870;9.082;2022-11-15T17:15:35;6.97;;;3.05;;
76053;SDS011;64752;48.870;9.082;2022-11-15T17:18:29;6.40;;;3.47;;
76053;SDS011;64752;48.870;9.082;2022-11-15T17:20:54;7.95;;;3.22;;
76053;SDS011;64752;48.870;9.082;2022-11-15T17:23:19;8.30;;;3.60;;
76053;SDS011;64752;48.870;9.082;2022-11-15T17:25:45;7.05;;;3.70;;
76053;SDS011;64752;48.870;9.082;2022-11-15T17:28:10;9.00;;;4.15;;
76053;SDS011;64752;48.870;9.082;2022-11-15T17:30:57;9.50;;;4.13;;
76053;SDS011;64752;48.870;9.082;2022-11-15T17:34:02;8.13;;;4.15;;
76053;SDS011;64752;48.870;9.082;2022-11-15T17:36:31;7.60;;;4.95;;
76053;SDS011;64752;48.870;9.082;2022-11-15T17:38:57;8.50;;;4.53;;
76053;SDS011;64752;48.870;9.082;2022-11-15T17:41:25;9.18;;;3.85;;
76053;SDS011;64752;48.870;9.082;2022-11-15T17:43:52;8.60;;;4.22;;
76053;SDS011;64752;48.870;9.082;2022-11-15T17:46:18;6.63;;;3.55;;
76053;SDS011;64752;48.870;9.082;2022-11-15T17:48:55;7.63;;;3.90;;
76053;SDS011;64752;48.870;9.082;2022-11-15T17:51:21;8.25;;;4.10;;
76053;SDS011;64752;48.870;9.082;2022-11-15T17:53:48;6.32;;;4.10;;
76053;SDS011;64752;48.870;9.082;2022-11-15T18:00:39;10.13;;;4.60;;
76053;SDS011;64752;48.870;9.082;2022-11-15T18:03:29;12.00;;;4.13;;
76053;SDS011;64752;48.870;9.082;2022-11-15T18:06:51;12.13;;;4.50;;
76053;SDS011;64752;48.870;9.082;2022-11-15T18:09:36;10.63;;;4.78;;
76053;SDS011;64752;48.870;9.082;2022-11-15T18:15:42;7.32;;;3.78;;
76053;SDS011;64752;48.870;9.082;2022-11-15T18:18:30;7.50;;;3.47;;
76053;SDS011;64752;48.870;9.082;2022-11-15T18:21:21;7.78;;;3.90;;
76053;SDS011;64752;48.870;9.082;2022-11-15T18:24:19;7.95;;;3.67;;
76053;SDS011;64752;48.870;9.082;2022-11-15T18:27:10;6.70;;;3.05;;
76053;SDS011;64752;48.870;9.082;2022-11-15T18:30:05;7.32;;;3.92;;
76053;SDS011;64752;48.870;9.082;2022-11-15T18:32:36;8.05;;;3.38;;
76053;SDS011;64752;48.870;9.082;2022-11-15T18:35:02;7.28;;;3.92;;